sensor_id;sensor_type;location;lat;lon;timestamp;P1;durP1;ratioP1;P2;durP2;ratioP2
22223;SDS011;11281;52.194;21.006;2023-07-31T00:00:34;4.55;;;3.28;;
22223;SDS011;11281;52.194;21.006;2023-07-31T00:04:56;4.45;;;3.53;;
22223;SDS011;11281;52.194;21.006;2023-07-31T00:09:17;4.38;;;3.22;;
22223;SDS011;11281;52.194;21.006;2023-07-31T00:13:39;4.38;;;3.15;;
22223;SDS011;11281;52.194;21.006;2023-07-31T00:18:01;4.43;;;3.10;;
22223;SDS011;11281;52.194;21.006;2023-07-31T00:22:22;4.63;;;3.53;;
22223;SDS011;11281;52.194;21.006;2023-07-31T00:26:44;3.95;;;3.30;;
22223;SDS011;11281;52.194;21.006;2023-07-31T00:31:06;4.22;;;3.53;;
22223;SDS011;11281;52.194;21.006;2023-07-31T00:35:28;3.70;;;2.63;;
22223;SDS011;11281;52.194;21.006;2023-07-31T00:39:49;4.60;;;3.05;;
22223;SDS011;11281;52.194;21.006;2023-07-31T00:44:11;4.25;;;2.80;;
22223;SDS011;11281;52.194;21.006;2023-07-31T00:48:33;3.65;;;2.90;;
22223;SDS011;11281;52.194;21.006;2023-07-31T00:52:56;5.50;;;3.42;;
22223;SDS011;11281;52.194;21.006;2023-07-31T00:57:17;3.65;;;2.65;;
22223;SDS011;11281;52.194;21.006;2023-07-31T01:01:39;3.28;;;2.50;;
22223;SDS011;11281;52.194;21.006;2023-07-31T01:11:04;5.63;;;2.97;;
22223;SDS011;11281;52.194;21.006;2023-07-31T01:15:36;3.50;;;2.80;;
22223;SDS011;11281;52.194;21.006;2023-07-31T01:19:59;4.03;;;2.90;;
22223;SDS011;11281;52.194;21.006;2023-07-31T01:29:55;3.67;;;2.55;;
22223;SDS011;11281;52.194;21.006;2023-07-31T01:34:20;2.35;;;2.15;;
22223;SDS011;11281;52.194;21.006;2023-07-31T01:38:43;2.33;;;2.05;;
22223;SDS011;11281;52.194;21.006;2023-07-31T01:43:04;3.35;;;2.70;;
22223;SDS011;11281;52.194;21.006;2023-07-31T01:47:26;2.40;;;2.15;;
22223;SDS011;11281;52.194;21.006;2023-07-31T01:51:48;3.03;;;2.10;;
22223;SDS011;11281;52.194;21.006;2023-07-31T01:56:09;3.97;;;2.10;;
22223;SDS011;11281;52.194;21.006;2023-07-31T02:00:31;4.80;;;2.50;;
22223;SDS011;11281;52.194;21.006;2023-07-31T02:04:53;2.80;;;2.22;;
22223;SDS011;11281;52.194;21.006;2023-07-31T02:09:15;2.58;;;2.38;;
22223;SDS011;11281;52.194;21.006;2023-07-31T02:13:36;3.40;;;2.58;;
22223;SDS011;11281;52.194;21.006;2023-07-31T02:17:58;3.10;;;2.50;;
22223;SDS011;11281;52.194;21.006;2023-07-31T02:22:20;3.22;;;2.33;;
22223;SDS011;11281;52.194;21.006;2023-07-31T02:26:42;3.20;;;2.35;;
22223;SDS011;11281;52.194;21.006;2023-07-31T02:31:03;2.50;;;2.30;;
22223;SDS011;11281;52.194;21.006;2023-07-31T02:35:25;3.53;;;2.50;;
22223;SDS011;11281;52.194;21.006;2023-07-31T02:39:47;5.78;;;3.13;;
22223;SDS011;11281;52.194;21.006;2023-07-31T02:44:08;2.92;;;2.45;;
22223;SDS011;11281;52.194;21.006;2023-07-31T02:48:31;3.17;;;2.35;;
22223;SDS011;11281;52.194;21.006;2023-07-31T02:52:53;4.72;;;2.63;;
22223;SDS011;11281;52.194;21.006;2023-07-31T02:57:14;2.72;;;2.45;;
22223;SDS011;11281;52.194;21.006;2023-07-31T03:01:37;3.50;;;2.55;;
22223;SDS011;11281;52.194;21.006;2023-07-31T03:05:59;4.72;;;2.30;;
22223;SDS011;11281;52.194;21.006;2023-07-31T03:10:20;2.90;;;2.50;;
22223;SDS011;11281;52.194;21.006;2023-07-31T03:14:42;5.05;;;2.67;;
22223;SDS011;11281;52.194;21.006;2023-07-31T03:19:04;3.15;;;2.45;;
22223;SDS011;11281;52.194;21.006;2023-07-31T03:23:26;4.68;;;2.50;;
22223;SDS011;11281;52.194;21.006;2023-07-31T03:27:47;2.83;;;2.50;;
22223;SDS011;11281;52.194;21.006;2023-07-31T03:32:09;4.63;;;2.35;;
22223;SDS011;11281;52.194;21.006;2023-07-31T03:36:31;5.18;;;2.70;;
22223;SDS011;11281;52.194;21.006;2023-07-31T03:40:52;4.78;;;3.50;;
22223;SDS011;11281;52.194;21.006;2023-07-31T03:45:14;5.32;;;3.63;;
22223;SDS011;11281;52.194;21.006;2023-07-31T03:49:36;4.78;;;3.30;;
22223;SDS011;11281;52.194;21.006;2023-07-31T03:53:58;3.90;;;3.10;;
22223;SDS011;11281;52.194;21.006;2023-07-31T03:58:19;3.65;;;3.08;;
22223;SDS011;11281;52.194;21.006;2023-07-31T04:02:41;5.40;;;3.70;;
22223;SDS011;11281;52.194;21.006;2023-07-31T04:07:03;4.95;;;3.47;;
22223;SDS011;11281;52.194;21.006;2023-07-31T04:11:24;4.97;;;2.95;;
22223;SDS011;11281;52.194;21.006;2023-07-31T04:15:49;3.58;;;3.20;;
22223;SDS011;11281;52.194;21.006;2023-07-31T04:20:11;3.42;;;2.80;;
22223;SDS011;11281;52.194;21.006;2023-07-31T04:24:33;4.35;;;3.25;;
22223;SDS011;11281;52.194;21.006;2023-07-31T04:28:55;4.15;;;2.83;;
22223;SDS011;11281;52.194;21.006;2023-07-31T04:33:17;5.03;;;3.20;;
22223;SDS011;11281;52.194;21.006;2023-07-31T04:37:39;7.90;;;2.40;;
22223;SDS011;11281;52.194;21.006;2023-07-31T04:42:01;3.58;;;2.55;;
22223;SDS011;11281;52.194;21.006;2023-07-31T04:46:22;4.07;;;2.40;;
22223;SDS011;11281;52.194;21.006;2023-07-31T04:50:44;3.72;;;2.25;;
22223;SDS011;11281;52.194;21.006;2023-07-31T04:55:06;5.40;;;2.72;;
22223;SDS011;11281;52.194;21.006;2023-07-31T04:59:28;3.85;;;2.25;;
22223;SDS011;11281;52.194;21.006;2023-07-31T05:03:49;3.83;;;2.42;;
22223;SDS011;11281;52.194;21.006;2023-07-31T05:08:11;2.88;;;2.35;;
22223;SDS011;11281;52.194;21.006;2023-07-31T05:12:33;3.20;;;2.40;;
22223;SDS011;11281;52.194;21.006;2023-07-31T05:16:55;2.83;;;2.33;;
22223;SDS011;11281;52.194;21.006;2023-07-31T05:21:16;4.40;;;2.53;;
22223;SDS011;11281;52.194;21.006;2023-07-31T05:25:38;4.10;;;2.35;;
22223;SDS011;11281;52.194;21.006;2023-07-31T05:30:00;5.78;;;2.58;;
22223;SDS011;11281;52.194;21.006;2023-07-31T05:34:21;4.38;;;1.92;;
22223;SDS011;11281;52.194;21.006;2023-07-31T05:38:43;3.60;;;2.25;;
22223;SDS011;11281;52.194;21.006;2023-07-31T05:43:05;2.55;;;1.75;;
22223;SDS011;11281;52.194;21.006;2023-07-31T05:47:29;2.10;;;1.80;;
22223;SDS011;11281;52.194;21.006;2023-07-31T05:51:50;2.75;;;2.10;;
22223;SDS011;11281;52.194;21.006;2023-07-31T05:56:12;4.57;;;2.10;;
22223;SDS011;11281;52.194;21.006;2023-07-31T06:00:34;2.30;;;2.00;;
22223;SDS011;11281;52.194;21.006;2023-07-31T06:04:56;2.35;;;2.03;;
22223;SDS011;11281;52.194;21.006;2023-07-31T06:09:17;3.20;;;2.17;;
22223;SDS011;11281;52.194;21.006;2023-07-31T06:13:39;3.17;;;2.20;;
22223;SDS011;11281;52.194;21.006;2023-07-31T06:18:01;3.53;;;2.30;;
22223;SDS011;11281;52.194;21.006;2023-07-31T06:22:24;3.70;;;2.30;;
22223;SDS011;11281;52.194;21.006;2023-07-31T06:26:45;3.47;;;2.42;;
22223;SDS011;11281;52.194;21.006;2023-07-31T06:31:07;5.90;;;2.63;;
22223;SDS011;11281;52.194;21.006;2023-07-31T06:35:29;12.20;;;2.60;;
22223;SDS011;11281;52.194;21.006;2023-07-31T06:39:50;6.63;;;2.40;;
22223;SDS011;11281;52.194;21.006;2023-07-31T06:44:12;4.30;;;2.33;;
22223;SDS011;11281;52.194;21.006;2023-07-31T06:48:34;2.85;;;2.03;;
22223;SDS011;11281;52.194;21.006;2023-07-31T06:52:57;3.08;;;1.90;;
22223;SDS011;11281;52.194;21.006;2023-07-31T06:57:19;2.75;;;2.03;;
22223;SDS011;11281;52.194;21.006;2023-07-31T07:01:41;3.38;;;2.45;;
22223;SDS011;11281;52.194;21.006;2023-07-31T07:06:03;3.08;;;2.10;;
22223;SDS011;11281;52.194;21.006;2023-07-31T07:10:25;3.58;;;2.38;;
22223;SDS011;11281;52.194;21.006;2023-07-31T07:14:46;2.53;;;1.85;;
22223;SDS011;11281;52.194;21.006;2023-07-31T07:19:08;2.35;;;1.65;;
22223;SDS011;11281;52.194;21.006;2023-07-31T07:23:30;3.97;;;1.92;;
22223;SDS011;11281;52.194;21.006;2023-07-31T07:27:52;4.20;;;1.85;;
22223;SDS011;11281;52.194;21.006;2023-07-31T07:32:13;4.53;;;1.80;;
22223;SDS011;11281;52.194;21.006;2023-07-31T07:36:35;4.40;;;1.70;;
22223;SDS011;11281;52.194;21.006;2023-07-31T07:40:58;3.97;;;1.98;;
22223;SDS011;11281;52.194;21.006;2023-07-31T07:45:20;2.42;;;1.70;;
22223;SDS011;11281;52.194;21.006;2023-07-31T07:49:41;4.00;;;1.65;;
22223;SDS011;11281;52.194;21.006;2023-07-31T07:54:03;3.72;;;1.88;;
22223;SDS011;11281;52.194;21.006;2023-07-31T07:58:25;2.13;;;1.63;;
22223;SDS011;11281;52.194;21.006;2023-07-31T08:02:46;4.28;;;2.17;;
22223;SDS011;11281;52.194;21.006;2023-07-31T08:07:10;5.57;;;2.42;;
22223;SDS011;11281;52.194;21.006;2023-07-31T08:11:33;5.85;;;2.55;;
22223;SDS011;11281;52.194;21.006;2023-07-31T08:15:55;3.88;;;2.50;;
22223;SDS011;11281;52.194;21.006;2023-07-31T08:20:17;3.22;;;2.30;;
22223;SDS011;11281;52.194;21.006;2023-07-31T08:24:38;3.53;;;2.05;;
22223;SDS011;11281;52.194;21.006;2023-07-31T08:29:00;5.38;;;2.13;;
22223;SDS011;11281;52.194;21.006;2023-07-31T08:33:22;6.00;;;1.92;;
22223;SDS011;11281;52.194;21.006;2023-07-31T08:37:44;2.72;;;2.25;;
22223;SDS011;11281;52.194;21.006;2023-07-31T08:42:07;3.38;;;2.78;;
22223;SDS011;11281;52.194;21.006;2023-07-31T08:46:30;3.47;;;2.25;;
22223;SDS011;11281;52.194;21.006;2023-07-31T08:50:53;2.08;;;1.88;;
22223;SDS011;11281;52.194;21.006;2023-07-31T08:55:15;2.88;;;2.22;;
22223;SDS011;11281;52.194;21.006;2023-07-31T08:59:37;5.68;;;1.70;;
22223;SDS011;11281;52.194;21.006;2023-07-31T09:04:00;5.18;;;1.77;;
22223;SDS011;11281;52.194;21.006;2023-07-31T09:08:22;3.42;;;2.20;;
22223;SDS011;11281;52.194;21.006;2023-07-31T09:12:48;2.53;;;1.55;;
22223;SDS011;11281;52.194;21.006;2023-07-31T09:17:12;4.38;;;2.03;;
22223;SDS011;11281;52.194;21.006;2023-07-31T09:21:34;2.17;;;1.63;;
22223;SDS011;11281;52.194;21.006;2023-07-31T09:26:09;3.13;;;1.50;;
22223;SDS011;11281;52.194;21.006;2023-07-31T09:30:46;1.92;;;1.58;;
22223;SDS011;11281;52.194;21.006;2023-07-31T09:39:47;4.95;;;1.20;;
22223;SDS011;11281;52.194;21.006;2023-07-31T09:44:15;1.83;;;1.38;;
22223;SDS011;11281;52.194;21.006;2023-07-31T09:48:38;1.65;;;0.98;;
22223;SDS011;11281;52.194;21.006;2023-07-31T09:53:00;1.45;;;1.35;;
22223;SDS011;11281;52.194;21.006;2023-07-31T09:57:22;1.52;;;1.08;;
22223;SDS011;11281;52.194;21.006;2023-07-31T10:01:45;3.53;;;1.27;;
22223;SDS011;11281;52.194;21.006;2023-07-31T10:06:07;1.40;;;1.00;;
22223;SDS011;11281;52.194;21.006;2023-07-31T10:10:30;0.90;;;0.90;;
22223;SDS011;11281;52.194;21.006;2023-07-31T10:14:53;4.20;;;2.15;;
22223;SDS011;11281;52.194;21.006;2023-07-31T10:19:16;3.20;;;1.20;;
22223;SDS011;11281;52.194;21.006;2023-07-31T10:23:40;3.95;;;1.00;;
22223;SDS011;11281;52.194;21.006;2023-07-31T10:28:03;1.38;;;0.90;;
22223;SDS011;11281;52.194;21.006;2023-07-31T10:32:25;1.50;;;1.02;;
22223;SDS011;11281;52.194;21.006;2023-07-31T10:36:48;3.00;;;0.70;;
22223;SDS011;11281;52.194;21.006;2023-07-31T10:41:10;3.10;;;0.60;;
22223;SDS011;11281;52.194;21.006;2023-07-31T10:45:33;0.75;;;0.60;;
22223;SDS011;11281;52.194;21.006;2023-07-31T10:50:12;2.85;;;0.75;;
22223;SDS011;11281;52.194;21.006;2023-07-31T10:54:45;2.63;;;0.73;;
22223;SDS011;11281;52.194;21.006;2023-07-31T10:59:07;2.67;;;0.98;;
22223;SDS011;11281;52.194;21.006;2023-07-31T11:03:48;4.03;;;0.95;;
22223;SDS011;11281;52.194;21.006;2023-07-31T11:08:20;1.00;;;0.90;;
22223;SDS011;11281;52.194;21.006;2023-07-31T11:12:47;1.67;;;0.80;;
22223;SDS011;11281;52.194;21.006;2023-07-31T11:17:09;1.23;;;0.63;;
22223;SDS011;11281;52.194;21.006;2023-07-31T11:21:30;1.38;;;0.55;;
22223;SDS011;11281;52.194;21.006;2023-07-31T11:25:52;0.80;;;0.80;;
22223;SDS011;11281;52.194;21.006;2023-07-31T11:30:20;1.65;;;0.70;;
22223;SDS011;11281;52.194;21.006;2023-07-31T11:34:51;0.85;;;0.52;;
22223;SDS011;11281;52.194;21.006;2023-07-31T11:39:16;1.48;;;1.17;;
22223;SDS011;11281;52.194;21.006;2023-07-31T11:43:38;2.10;;;0.88;;
22223;SDS011;11281;52.194;21.006;2023-07-31T11:47:59;0.65;;;0.65;;
22223;SDS011;11281;52.194;21.006;2023-07-31T11:52:22;1.13;;;0.70;;
22223;SDS011;11281;52.194;21.006;2023-07-31T11:56:44;1.15;;;0.70;;
22223;SDS011;11281;52.194;21.006;2023-07-31T12:01:06;1.30;;;0.80;;
22223;SDS011;11281;52.194;21.006;2023-07-31T12:05:29;1.52;;;0.82;;
22223;SDS011;11281;52.194;21.006;2023-07-31T12:09:54;0.90;;;0.80;;
22223;SDS011;11281;52.194;21.006;2023-07-31T12:14:26;1.67;;;0.95;;
22223;SDS011;11281;52.194;21.006;2023-07-31T12:18:51;1.92;;;1.10;;
22223;SDS011;11281;52.194;21.006;2023-07-31T12:23:14;0.93;;;0.75;;
22223;SDS011;11281;52.194;21.006;2023-07-31T12:27:38;3.00;;;0.80;;
22223;SDS011;11281;52.194;21.006;2023-07-31T12:32:00;1.75;;;0.90;;
22223;SDS011;11281;52.194;21.006;2023-07-31T12:36:22;1.75;;;1.05;;
22223;SDS011;11281;52.194;21.006;2023-07-31T12:40:45;1.33;;;0.63;;
22223;SDS011;11281;52.194;21.006;2023-07-31T12:45:06;3.70;;;1.05;;
22223;SDS011;11281;52.194;21.006;2023-07-31T12:49:28;1.45;;;0.90;;
22223;SDS011;11281;52.194;21.006;2023-07-31T12:53:50;3.17;;;0.90;;
22223;SDS011;11281;52.194;21.006;2023-07-31T12:58:12;2.25;;;0.80;;
22223;SDS011;11281;52.194;21.006;2023-07-31T13:02:34;2.90;;;1.05;;
22223;SDS011;11281;52.194;21.006;2023-07-31T13:06:55;2.13;;;1.00;;
22223;SDS011;11281;52.194;21.006;2023-07-31T13:11:17;1.00;;;0.90;;
22223;SDS011;11281;52.194;21.006;2023-07-31T13:15:39;2.10;;;1.00;;
22223;SDS011;11281;52.194;21.006;2023-07-31T13:20:00;2.15;;;1.20;;
22223;SDS011;11281;52.194;21.006;2023-07-31T13:24:23;3.67;;;1.20;;
22223;SDS011;11281;52.194;21.006;2023-07-31T13:28:44;1.20;;;0.82;;
22223;SDS011;11281;52.194;21.006;2023-07-31T13:33:06;2.80;;;0.63;;
22223;SDS011;11281;52.194;21.006;2023-07-31T13:37:28;2.80;;;0.90;;
22223;SDS011;11281;52.194;21.006;2023-07-31T13:41:49;3.95;;;0.95;;
22223;SDS011;11281;52.194;21.006;2023-07-31T13:46:11;1.88;;;1.02;;
22223;SDS011;11281;52.194;21.006;2023-07-31T13:50:33;2.65;;;0.95;;
22223;SDS011;11281;52.194;21.006;2023-07-31T13:54:54;5.35;;;1.35;;
22223;SDS011;11281;52.194;21.006;2023-07-31T13:59:16;1.52;;;1.30;;
22223;SDS011;11281;52.194;21.006;2023-07-31T14:03:38;2.03;;;1.20;;
22223;SDS011;11281;52.194;21.006;2023-07-31T14:08:00;1.30;;;0.90;;
22223;SDS011;11281;52.194;21.006;2023-07-31T14:12:21;2.63;;;1.00;;
22223;SDS011;11281;52.194;21.006;2023-07-31T14:16:43;1.90;;;1.15;;
22223;SDS011;11281;52.194;21.006;2023-07-31T14:21:05;2.22;;;0.90;;
22223;SDS011;11281;52.194;21.006;2023-07-31T14:25:27;1.77;;;1.00;;
22223;SDS011;11281;52.194;21.006;2023-07-31T14:29:48;1.55;;;0.90;;
22223;SDS011;11281;52.194;21.006;2023-07-31T14:34:10;7.45;;;4.88;;
22223;SDS011;11281;52.194;21.006;2023-07-31T14:38:32;10.18;;;5.55;;
22223;SDS011;11281;52.194;21.006;2023-07-31T14:42:54;1.55;;;1.40;;
22223;SDS011;11281;52.194;21.006;2023-07-31T14:47:16;4.95;;;2.05;;
22223;SDS011;11281;52.194;21.006;2023-07-31T14:51:37;5.07;;;2.33;;
22223;SDS011;11281;52.194;21.006;2023-07-31T14:55:59;2.15;;;1.50;;
22223;SDS011;11281;52.194;21.006;2023-07-31T15:00:21;4.20;;;1.30;;
22223;SDS011;11281;52.194;21.006;2023-07-31T15:04:43;1.92;;;1.10;;
22223;SDS011;11281;52.194;21.006;2023-07-31T15:09:05;2.65;;;0.80;;
22223;SDS011;11281;52.194;21.006;2023-07-31T15:13:26;2.72;;;1.17;;
22223;SDS011;11281;52.194;21.006;2023-07-31T15:17:48;1.88;;;1.15;;
22223;SDS011;11281;52.194;21.006;2023-07-31T15:22:10;2.97;;;1.20;;
22223;SDS011;11281;52.194;21.006;2023-07-31T15:26:32;2.72;;;1.20;;
22223;SDS011;11281;52.194;21.006;2023-07-31T15:30:53;2.35;;;1.00;;
22223;SDS011;11281;52.194;21.006;2023-07-31T15:35:15;4.30;;;1.23;;
22223;SDS011;11281;52.194;21.006;2023-07-31T15:39:37;1.10;;;0.98;;
22223;SDS011;11281;52.194;21.006;2023-07-31T15:43:59;4.03;;;1.13;;
22223;SDS011;11281;52.194;21.006;2023-07-31T15:48:20;1.83;;;1.30;;
22223;SDS011;11281;52.194;21.006;2023-07-31T15:52:42;3.97;;;1.70;;
22223;SDS011;11281;52.194;21.006;2023-07-31T15:57:04;4.10;;;1.67;;
22223;SDS011;11281;52.194;21.006;2023-07-31T16:01:26;2.88;;;1.38;;
22223;SDS011;11281;52.194;21.006;2023-07-31T16:05:48;2.92;;;1.63;;
22223;SDS011;11281;52.194;21.006;2023-07-31T16:10:10;2.05;;;1.13;;
22223;SDS011;11281;52.194;21.006;2023-07-31T16:14:32;2.08;;;1.40;;
22223;SDS011;11281;52.194;21.006;2023-07-31T16:18:53;2.78;;;1.80;;
22223;SDS011;11281;52.194;21.006;2023-07-31T16:23:15;2.83;;;1.85;;
22223;SDS011;11281;52.194;21.006;2023-07-31T16:27:37;3.22;;;1.80;;
22223;SDS011;11281;52.194;21.006;2023-07-31T16:31:59;4.55;;;1.75;;
22223;SDS011;11281;52.194;21.006;2023-07-31T16:36:20;5.75;;;3.28;;
22223;SDS011;11281;52.194;21.006;2023-07-31T16:40:42;4.15;;;2.10;;
22223;SDS011;11281;52.194;21.006;2023-07-31T16:45:05;2.13;;;1.90;;
22223;SDS011;11281;52.194;21.006;2023-07-31T16:49:27;4.13;;;1.50;;
22223;SDS011;11281;52.194;21.006;2023-07-31T16:53:49;4.63;;;1.98;;
22223;SDS011;11281;52.194;21.006;2023-07-31T16:58:11;3.08;;;1.58;;
22223;SDS011;11281;52.194;21.006;2023-07-31T17:02:32;5.85;;;2.70;;
22223;SDS011;11281;52.194;21.006;2023-07-31T17:06:54;6.47;;;3.50;;
22223;SDS011;11281;52.194;21.006;2023-07-31T17:11:16;6.10;;;3.63;;
22223;SDS011;11281;52.194;21.006;2023-07-31T17:15:37;5.57;;;3.20;;
22223;SDS011;11281;52.194;21.006;2023-07-31T17:19:59;4.63;;;2.15;;
22223;SDS011;11281;52.194;21.006;2023-07-31T17:24:21;3.63;;;1.75;;
22223;SDS011;11281;52.194;21.006;2023-07-31T17:28:42;2.72;;;1.90;;
22223;SDS011;11281;52.194;21.006;2023-07-31T17:33:04;5.25;;;2.10;;
22223;SDS011;11281;52.194;21.006;2023-07-31T17:37:26;6.72;;;2.63;;
22223;SDS011;11281;52.194;21.006;2023-07-31T17:41:48;8.73;;;2.92;;
22223;SDS011;11281;52.194;21.006;2023-07-31T17:46:09;5.65;;;1.85;;
22223;SDS011;11281;52.194;21.006;2023-07-31T17:50:31;7.80;;;2.15;;
22223;SDS011;11281;52.194;21.006;2023-07-31T17:54:53;8.27;;;1.95;;
22223;SDS011;11281;52.194;21.006;2023-07-31T17:59:15;4.15;;;1.95;;
22223;SDS011;11281;52.194;21.006;2023-07-31T18:03:36;5.13;;;2.10;;
22223;SDS011;11281;52.194;21.006;2023-07-31T18:07:58;2.97;;;1.80;;
22223;SDS011;11281;52.194;21.006;2023-07-31T18:12:20;3.15;;;1.60;;
22223;SDS011;11281;52.194;21.006;2023-07-31T18:16:41;5.72;;;1.83;;
22223;SDS011;11281;52.194;21.006;2023-07-31T18:21:03;6.07;;;2.20;;
22223;SDS011;11281;52.194;21.006;2023-07-31T18:25:27;3.35;;;1.92;;
22223;SDS011;11281;52.194;21.006;2023-07-31T18:29:49;4.07;;;1.80;;
22223;SDS011;11281;52.194;21.006;2023-07-31T18:34:11;4.03;;;1.58;;
22223;SDS011;11281;52.194;21.006;2023-07-31T18:38:33;4.55;;;2.25;;
22223;SDS011;11281;52.194;21.006;2023-07-31T18:42:54;3.25;;;1.90;;
22223;SDS011;11281;52.194;21.006;2023-07-31T18:47:17;3.85;;;2.40;;
22223;SDS011;11281;52.194;21.006;2023-07-31T18:51:39;5.15;;;2.00;;
22223;SDS011;11281;52.194;21.006;2023-07-31T18:56:01;3.00;;;2.13;;
22223;SDS011;11281;52.194;21.006;2023-07-31T19:00:23;6.25;;;2.63;;
22223;SDS011;11281;52.194;21.006;2023-07-31T19:04:44;7.40;;;3.58;;
22223;SDS011;11281;52.194;21.006;2023-07-31T19:09:06;18.38;;;6.82;;
22223;SDS011;11281;52.194;21.006;2023-07-31T19:13:31;19.20;;;6.85;;
22223;SDS011;11281;52.194;21.006;2023-07-31T19:17:53;6.47;;;3.95;;
22223;SDS011;11281;52.194;21.006;2023-07-31T19:22:14;7.75;;;3.55;;
22223;SDS011;11281;52.194;21.006;2023-07-31T19:26:36;4.53;;;2.92;;
22223;SDS011;11281;52.194;21.006;2023-07-31T19:30:58;8.20;;;5.00;;
22223;SDS011;11281;52.194;21.006;2023-07-31T19:35:21;8.13;;;5.95;;
22223;SDS011;11281;52.194;21.006;2023-07-31T19:39:46;11.48;;;7.57;;
22223;SDS011;11281;52.194;21.006;2023-07-31T19:44:08;19.20;;;11.35;;
22223;SDS011;11281;52.194;21.006;2023-07-31T19:48:30;9.55;;;5.38;;
22223;SDS011;11281;52.194;21.006;2023-07-31T19:52:52;9.82;;;5.30;;
22223;SDS011;11281;52.194;21.006;2023-07-31T19:57:14;2.97;;;2.55;;
22223;SDS011;11281;52.194;21.006;2023-07-31T20:01:36;2.00;;;1.90;;
22223;SDS011;11281;52.194;21.006;2023-07-31T20:05:57;4.13;;;1.98;;
22223;SDS011;11281;52.194;21.006;2023-07-31T20:10:19;5.85;;;2.20;;
22223;SDS011;11281;52.194;21.006;2023-07-31T20:14:41;2.72;;;2.13;;
22223;SDS011;11281;52.194;21.006;2023-07-31T20:19:03;7.03;;;2.28;;
22223;SDS011;11281;52.194;21.006;2023-07-31T20:23:24;4.70;;;2.22;;
22223;SDS011;11281;52.194;21.006;2023-07-31T20:27:46;3.10;;;2.00;;
22223;SDS011;11281;52.194;21.006;2023-07-31T20:32:08;2.83;;;2.40;;
22223;SDS011;11281;52.194;21.006;2023-07-31T20:36:29;4.72;;;2.03;;
22223;SDS011;11281;52.194;21.006;2023-07-31T20:40:51;5.97;;;2.05;;
22223;SDS011;11281;52.194;21.006;2023-07-31T20:45:13;4.10;;;2.40;;
22223;SDS011;11281;52.194;21.006;2023-07-31T20:49:35;6.78;;;2.67;;
22223;SDS011;11281;52.194;21.006;2023-07-31T20:53:57;9.00;;;2.70;;
22223;SDS011;11281;52.194;21.006;2023-07-31T20:58:18;3.22;;;2.55;;
22223;SDS011;11281;52.194;21.006;2023-07-31T21:02:40;3.47;;;2.33;;
22223;SDS011;11281;52.194;21.006;2023-07-31T21:07:02;4.28;;;1.95;;
22223;SDS011;11281;52.194;21.006;2023-07-31T21:11:24;4.55;;;2.28;;
22223;SDS011;11281;52.194;21.006;2023-07-31T21:15:46;2.65;;;2.15;;
22223;SDS011;11281;52.194;21.006;2023-07-31T21:20:08;4.30;;;2.50;;
22223;SDS011;11281;52.194;21.006;2023-07-31T21:24:30;3.38;;;2.72;;
22223;SDS011;11281;52.194;21.006;2023-07-31T21:28:51;4.75;;;2.22;;
22223;SDS011;11281;52.194;21.006;2023-07-31T21:33:13;4.40;;;2.30;;
22223;SDS011;11281;52.194;21.006;2023-07-31T21:37:35;4.38;;;2.55;;
22223;SDS011;11281;52.194;21.006;2023-07-31T21:41:57;3.97;;;2.05;;
22223;SDS011;11281;52.194;21.006;2023-07-31T21:46:19;3.28;;;2.15;;
22223;SDS011;11281;52.194;21.006;2023-07-31T21:50:41;4.88;;;2.15;;
22223;SDS011;11281;52.194;21.006;2023-07-31T21:55:04;7.32;;;2.75;;
22223;SDS011;11281;52.194;21.006;2023-07-31T21:59:26;5.80;;;2.25;;
22223;SDS011;11281;52.194;21.006;2023-07-31T22:03:48;2.88;;;2.38;;
22223;SDS011;11281;52.194;21.006;2023-07-31T22:08:09;6.50;;;3.80;;
22223;SDS011;11281;52.194;21.006;2023-07-31T22:12:31;4.53;;;2.15;;
22223;SDS011;11281;52.194;21.006;2023-07-31T22:16:53;4.60;;;2.80;;
22223;SDS011;11281;52.194;21.006;2023-07-31T22:21:15;6.53;;;2.35;;
22223;SDS011;11281;52.194;21.006;2023-07-31T22:25:39;3.97;;;2.88;;
22223;SDS011;11281;52.194;21.006;2023-07-31T22:30:01;3.90;;;2.63;;
22223;SDS011;11281;52.194;21.006;2023-07-31T22:34:22;4.80;;;2.67;;
22223;SDS011;11281;52.194;21.006;2023-07-31T22:38:44;4.10;;;2.40;;
22223;SDS011;11281;52.194;21.006;2023-07-31T22:43:06;4.20;;;2.22;;
22223;SDS011;11281;52.194;21.006;2023-07-31T22:47:27;5.72;;;2.83;;
22223;SDS011;11281;52.194;21.006;2023-07-31T22:51:49;4.38;;;2.55;;
22223;SDS011;11281;52.194;21.006;2023-07-31T22:56:11;5.18;;;2.78;;
22223;SDS011;11281;52.194;21.006;2023-07-31T23:00:33;6.65;;;2.83;;
22223;SDS011;11281;52.194;21.006;2023-07-31T23:04:54;3.72;;;2.53;;
22223;SDS011;11281;52.194;21.006;2023-07-31T23:09:16;3.92;;;2.53;;
22223;SDS011;11281;52.194;21.006;2023-07-31T23:13:38;4.85;;;2.80;;
22223;SDS011;11281;52.194;21.006;2023-07-31T23:17:59;5.72;;;2.63;;
22223;SDS011;11281;52.194;21.006;2023-07-31T23:22:21;8.55;;;3.10;;
22223;SDS011;11281;52.194;21.006;2023-07-31T23:26:43;4.30;;;2.47;;
22223;SDS011;11281;52.194;21.006;2023-07-31T23:31:05;4.07;;;2.60;;
22223;SDS011;11281;52.194;21.006;2023-07-31T23:35:29;4.85;;;2.80;;
22223;SDS011;11281;52.194;21.006;2023-07-31T23:39:51;8.05;;;2.80;;
22223;SDS011;11281;52.194;21.006;2023-07-31T23:44:13;3.08;;;2.60;;
22223;SDS011;11281;52.194;21.006;2023-07-31T23:48:35;4.78;;;2.70;;
22223;SDS011;11281;52.194;21.006;2023-07-31T23:52:57;4.63;;;2.80;;
22223;SDS011;11281;52.194;21.006;2023-07-31T23:57:18;4.28;;;2.80;;
